sensor_id;sensor_type;location;lat;lon;timestamp;P1;durP1;ratioP1;P2;durP2;ratioP2
6007;SDS011;3032;49.484;11.112;2023-11-19T00:01:35;7.25;;;6.00;;
6007;SDS011;3032;49.484;11.112;2023-11-19T00:04:01;8.67;;;6.77;;
6007;SDS011;3032;49.484;11.112;2023-11-19T00:06:29;11.05;;;6.90;;
6007;SDS011;3032;49.484;11.112;2023-11-19T00:08:55;6.97;;;6.27;;
6007;SDS011;3032;49.484;11.112;2023-11-19T00:11:20;8.27;;;5.93;;
6007;SDS011;3032;49.484;11.112;2023-11-19T00:13:46;9.37;;;6.47;;
6007;SDS011;3032;49.484;11.112;2023-11-19T00:16:12;8.80;;;5.97;;
6007;SDS011;3032;49.484;11.112;2023-11-19T00:18:37;6.13;;;5.53;;
6007;SDS011;3032;49.484;11.112;2023-11-19T00:21:03;6.67;;;5.30;;
6007;SDS011;3032;49.484;11.112;2023-11-19T00:23:28;9.10;;;6.30;;
6007;SDS011;3032;49.484;11.112;2023-11-19T00:25:54;7.63;;;5.50;;
6007;SDS011;3032;49.484;11.112;2023-11-19T00:28:19;8.33;;;6.70;;
6007;SDS011;3032;49.484;11.112;2023-11-19T00:30:45;7.13;;;5.43;;
6007;SDS011;3032;49.484;11.112;2023-11-19T00:33:11;6.57;;;5.70;;
6007;SDS011;3032;49.484;11.112;2023-11-19T00:35:36;5.87;;;5.33;;
6007;SDS011;3032;49.484;11.112;2023-11-19T00:38:02;8.30;;;6.07;;
6007;SDS011;3032;49.484;11.112;2023-11-19T00:40:28;7.05;;;6.35;;
6007;SDS011;3032;49.484;11.112;2023-11-19T00:42:54;9.63;;;6.80;;
6007;SDS011;3032;49.484;11.112;2023-11-19T00:45:20;5.73;;;5.10;;
6007;SDS011;3032;49.484;11.112;2023-11-19T00:47:45;6.30;;;5.70;;
6007;SDS011;3032;49.484;11.112;2023-11-19T00:50:11;6.83;;;6.13;;
6007;SDS011;3032;49.484;11.112;2023-11-19T00:52:37;6.85;;;5.85;;
6007;SDS011;3032;49.484;11.112;2023-11-19T00:55:03;8.50;;;5.57;;
6007;SDS011;3032;49.484;11.112;2023-11-19T00:57:30;8.02;;;6.80;;
6007;SDS011;3032;49.484;11.112;2023-11-19T00:59:58;10.15;;;6.65;;
6007;SDS011;3032;49.484;11.112;2023-11-19T01:02:24;5.95;;;5.35;;
6007;SDS011;3032;49.484;11.112;2023-11-19T01:04:50;8.70;;;5.95;;
6007;SDS011;3032;49.484;11.112;2023-11-19T01:07:15;5.37;;;4.50;;
6007;SDS011;3032;49.484;11.112;2023-11-19T01:09:41;6.30;;;5.70;;
6007;SDS011;3032;49.484;11.112;2023-11-19T01:12:07;6.97;;;6.10;;
6007;SDS011;3032;49.484;11.112;2023-11-19T01:14:34;6.22;;;5.63;;
6007;SDS011;3032;49.484;11.112;2023-11-19T01:17:00;7.75;;;6.28;;
6007;SDS011;3032;49.484;11.112;2023-11-19T01:19:26;6.18;;;5.57;;
6007;SDS011;3032;49.484;11.112;2023-11-19T01:21:53;7.63;;;6.55;;
6007;SDS011;3032;49.484;11.112;2023-11-19T01:24:19;8.37;;;5.63;;
6007;SDS011;3032;49.484;11.112;2023-11-19T01:26:44;7.67;;;6.20;;
6007;SDS011;3032;49.484;11.112;2023-11-19T01:29:13;8.20;;;5.60;;
6007;SDS011;3032;49.484;11.112;2023-11-19T01:31:40;8.27;;;6.30;;
6007;SDS011;3032;49.484;11.112;2023-11-19T01:34:06;7.85;;;6.50;;
6007;SDS011;3032;49.484;11.112;2023-11-19T01:36:32;6.50;;;5.50;;
6007;SDS011;3032;49.484;11.112;2023-11-19T01:38:57;6.67;;;5.93;;
6007;SDS011;3032;49.484;11.112;2023-11-19T01:41:23;7.20;;;5.80;;
6007;SDS011;3032;49.484;11.112;2023-11-19T01:43:49;8.55;;;5.85;;
6007;SDS011;3032;49.484;11.112;2023-11-19T01:46:15;7.97;;;7.00;;
6007;SDS011;3032;49.484;11.112;2023-11-19T01:48:42;6.67;;;5.97;;
6007;SDS011;3032;49.484;11.112;2023-11-19T01:51:10;9.60;;;6.90;;
6007;SDS011;3032;49.484;11.112;2023-11-19T01:53:37;10.27;;;7.57;;
6007;SDS011;3032;49.484;11.112;2023-11-19T01:56:04;9.20;;;6.75;;
6007;SDS011;3032;49.484;11.112;2023-11-19T01:58:34;8.00;;;6.40;;
6007;SDS011;3032;49.484;11.112;2023-11-19T02:01:00;10.02;;;7.50;;
6007;SDS011;3032;49.484;11.112;2023-11-19T02:03:29;9.15;;;7.70;;
6007;SDS011;3032;49.484;11.112;2023-11-19T02:05:57;7.78;;;6.78;;
6007;SDS011;3032;49.484;11.112;2023-11-19T02:08:23;9.63;;;6.60;;
6007;SDS011;3032;49.484;11.112;2023-11-19T02:10:49;8.83;;;7.60;;
6007;SDS011;3032;49.484;11.112;2023-11-19T02:13:14;8.07;;;5.80;;
6007;SDS011;3032;49.484;11.112;2023-11-19T02:15:41;6.70;;;5.80;;
6007;SDS011;3032;49.484;11.112;2023-11-19T02:18:16;8.10;;;5.80;;
6007;SDS011;3032;49.484;11.112;2023-11-19T02:20:46;7.28;;;6.55;;
6007;SDS011;3032;49.484;11.112;2023-11-19T02:23:13;7.45;;;6.72;;
6007;SDS011;3032;49.484;11.112;2023-11-19T02:25:38;7.33;;;6.57;;
6007;SDS011;3032;49.484;11.112;2023-11-19T02:28:05;8.27;;;7.05;;
6007;SDS011;3032;49.484;11.112;2023-11-19T02:30:32;8.43;;;6.90;;
6007;SDS011;3032;49.484;11.112;2023-11-19T02:33:00;11.37;;;7.03;;
6007;SDS011;3032;49.484;11.112;2023-11-19T02:35:30;10.27;;;7.43;;
6007;SDS011;3032;49.484;11.112;2023-11-19T02:37:56;7.65;;;6.53;;
6007;SDS011;3032;49.484;11.112;2023-11-19T02:40:23;10.43;;;7.03;;
6007;SDS011;3032;49.484;11.112;2023-11-19T02:42:49;8.20;;;7.00;;
6007;SDS011;3032;49.484;11.112;2023-11-19T02:45:15;12.57;;;8.20;;
6007;SDS011;3032;49.484;11.112;2023-11-19T02:47:41;8.37;;;6.57;;
6007;SDS011;3032;49.484;11.112;2023-11-19T02:50:07;10.13;;;7.38;;
6007;SDS011;3032;49.484;11.112;2023-11-19T02:52:42;9.55;;;7.00;;
6007;SDS011;3032;49.484;11.112;2023-11-19T02:55:12;9.40;;;6.93;;
6007;SDS011;3032;49.484;11.112;2023-11-19T02:57:39;15.57;;;8.77;;
6007;SDS011;3032;49.484;11.112;2023-11-19T03:00:11;9.55;;;7.00;;
6007;SDS011;3032;49.484;11.112;2023-11-19T03:02:39;6.03;;;5.43;;
6007;SDS011;3032;49.484;11.112;2023-11-19T03:05:10;9.57;;;6.05;;
6007;SDS011;3032;49.484;11.112;2023-11-19T03:07:36;13.48;;;8.30;;
6007;SDS011;3032;49.484;11.112;2023-11-19T03:10:02;10.00;;;7.47;;
6007;SDS011;3032;49.484;11.112;2023-11-19T03:12:30;10.85;;;7.70;;
6007;SDS011;3032;49.484;11.112;2023-11-19T03:14:56;8.60;;;6.90;;
6007;SDS011;3032;49.484;11.112;2023-11-19T03:17:21;9.53;;;6.90;;
6007;SDS011;3032;49.484;11.112;2023-11-19T03:19:49;12.93;;;8.55;;
6007;SDS011;3032;49.484;11.112;2023-11-19T03:22:14;6.97;;;5.90;;
6007;SDS011;3032;49.484;11.112;2023-11-19T03:24:40;8.53;;;6.70;;
6007;SDS011;3032;49.484;11.112;2023-11-19T03:27:05;15.67;;;9.20;;
6007;SDS011;3032;49.484;11.112;2023-11-19T03:29:31;13.23;;;8.50;;
6007;SDS011;3032;49.484;11.112;2023-11-19T03:31:56;11.90;;;7.60;;
6007;SDS011;3032;49.484;11.112;2023-11-19T03:34:22;9.43;;;7.70;;
6007;SDS011;3032;49.484;11.112;2023-11-19T03:36:47;11.00;;;7.70;;
6007;SDS011;3032;49.484;11.112;2023-11-19T03:39:14;11.05;;;7.65;;
6007;SDS011;3032;49.484;11.112;2023-11-19T03:41:39;14.67;;;8.77;;
6007;SDS011;3032;49.484;11.112;2023-11-19T03:44:05;14.63;;;9.10;;
6007;SDS011;3032;49.484;11.112;2023-11-19T03:46:30;14.77;;;8.93;;
6007;SDS011;3032;49.484;11.112;2023-11-19T03:48:56;11.53;;;7.30;;
6007;SDS011;3032;49.484;11.112;2023-11-19T03:51:21;13.73;;;8.77;;
6007;SDS011;3032;49.484;11.112;2023-11-19T03:53:47;14.70;;;9.20;;
6007;SDS011;3032;49.484;11.112;2023-11-19T03:56:13;12.50;;;9.07;;
6007;SDS011;3032;49.484;11.112;2023-11-19T03:58:38;13.20;;;8.57;;
6007;SDS011;3032;49.484;11.112;2023-11-19T04:01:04;12.70;;;8.70;;
6007;SDS011;3032;49.484;11.112;2023-11-19T04:03:30;12.05;;;8.50;;
6007;SDS011;3032;49.484;11.112;2023-11-19T04:05:56;21.60;;;11.53;;
6007;SDS011;3032;49.484;11.112;2023-11-19T04:08:22;15.17;;;10.37;;
6007;SDS011;3032;49.484;11.112;2023-11-19T04:10:48;17.57;;;11.10;;
6007;SDS011;3032;49.484;11.112;2023-11-19T04:13:13;18.70;;;11.00;;
6007;SDS011;3032;49.484;11.112;2023-11-19T04:15:39;12.30;;;9.17;;
6007;SDS011;3032;49.484;11.112;2023-11-19T04:18:05;17.40;;;10.60;;
6007;SDS011;3032;49.484;11.112;2023-11-19T04:20:30;19.83;;;12.00;;
6007;SDS011;3032;49.484;11.112;2023-11-19T04:22:56;12.68;;;9.35;;
6007;SDS011;3032;49.484;11.112;2023-11-19T04:25:22;16.37;;;10.77;;
6007;SDS011;3032;49.484;11.112;2023-11-19T04:27:49;14.07;;;10.00;;
6007;SDS011;3032;49.484;11.112;2023-11-19T04:30:15;14.63;;;10.30;;
6007;SDS011;3032;49.484;11.112;2023-11-19T04:32:40;20.80;;;12.23;;
6007;SDS011;3032;49.484;11.112;2023-11-19T04:35:06;25.20;;;12.80;;
6007;SDS011;3032;49.484;11.112;2023-11-19T04:37:32;21.75;;;12.45;;
6007;SDS011;3032;49.484;11.112;2023-11-19T04:39:57;23.90;;;13.47;;
6007;SDS011;3032;49.484;11.112;2023-11-19T04:42:25;15.35;;;10.43;;
6007;SDS011;3032;49.484;11.112;2023-11-19T04:44:50;22.13;;;12.50;;
6007;SDS011;3032;49.484;11.112;2023-11-19T04:47:16;16.90;;;11.17;;
6007;SDS011;3032;49.484;11.112;2023-11-19T04:49:41;12.67;;;9.47;;
6007;SDS011;3032;49.484;11.112;2023-11-19T04:52:08;18.30;;;11.65;;
6007;SDS011;3032;49.484;11.112;2023-11-19T04:54:33;14.47;;;10.87;;
6007;SDS011;3032;49.484;11.112;2023-11-19T04:56:59;17.53;;;11.03;;
6007;SDS011;3032;49.484;11.112;2023-11-19T04:59:24;19.60;;;11.70;;
6007;SDS011;3032;49.484;11.112;2023-11-19T05:01:50;19.00;;;12.30;;
6007;SDS011;3032;49.484;11.112;2023-11-19T05:04:16;13.80;;;9.83;;
6007;SDS011;3032;49.484;11.112;2023-11-19T05:06:43;16.05;;;10.88;;
6007;SDS011;3032;49.484;11.112;2023-11-19T05:09:09;14.57;;;10.37;;
6007;SDS011;3032;49.484;11.112;2023-11-19T05:11:37;17.42;;;11.15;;
6007;SDS011;3032;49.484;11.112;2023-11-19T05:14:04;24.38;;;13.30;;
6007;SDS011;3032;49.484;11.112;2023-11-19T05:16:29;22.07;;;13.17;;
6007;SDS011;3032;49.484;11.112;2023-11-19T05:18:55;15.00;;;10.27;;
6007;SDS011;3032;49.484;11.112;2023-11-19T05:21:21;16.53;;;11.40;;
6007;SDS011;3032;49.484;11.112;2023-11-19T05:23:46;20.50;;;12.30;;
6007;SDS011;3032;49.484;11.112;2023-11-19T05:26:19;15.70;;;10.37;;
6007;SDS011;3032;49.484;11.112;2023-11-19T05:28:46;14.23;;;10.20;;
6007;SDS011;3032;49.484;11.112;2023-11-19T05:31:12;19.02;;;11.77;;
6007;SDS011;3032;49.484;11.112;2023-11-19T05:33:38;14.83;;;10.10;;
6007;SDS011;3032;49.484;11.112;2023-11-19T05:36:04;19.33;;;11.77;;
6007;SDS011;3032;49.484;11.112;2023-11-19T05:38:30;23.90;;;12.48;;
6007;SDS011;3032;49.484;11.112;2023-11-19T05:40:56;17.00;;;11.77;;
6007;SDS011;3032;49.484;11.112;2023-11-19T05:43:22;20.80;;;12.13;;
6007;SDS011;3032;49.484;11.112;2023-11-19T05:45:47;23.50;;;12.63;;
6007;SDS011;3032;49.484;11.112;2023-11-19T05:48:13;22.60;;;13.27;;
6007;SDS011;3032;49.484;11.112;2023-11-19T05:50:39;22.90;;;12.33;;
6007;SDS011;3032;49.484;11.112;2023-11-19T05:53:04;21.83;;;12.50;;
6007;SDS011;3032;49.484;11.112;2023-11-19T05:55:33;19.73;;;11.95;;
6007;SDS011;3032;49.484;11.112;2023-11-19T05:58:00;27.27;;;13.52;;
6007;SDS011;3032;49.484;11.112;2023-11-19T06:00:25;18.30;;;11.17;;
6007;SDS011;3032;49.484;11.112;2023-11-19T06:02:51;26.20;;;15.00;;
6007;SDS011;3032;49.484;11.112;2023-11-19T06:05:17;32.70;;;15.50;;
6007;SDS011;3032;49.484;11.112;2023-11-19T06:07:43;25.47;;;13.23;;
6007;SDS011;3032;49.484;11.112;2023-11-19T06:10:09;47.27;;;18.53;;
6007;SDS011;3032;49.484;11.112;2023-11-19T06:12:35;35.80;;;15.45;;
6007;SDS011;3032;49.484;11.112;2023-11-19T06:15:05;50.47;;;17.92;;
6007;SDS011;3032;49.484;11.112;2023-11-19T06:17:33;60.53;;;20.10;;
6007;SDS011;3032;49.484;11.112;2023-11-19T06:19:59;17.13;;;10.30;;
6007;SDS011;3032;49.484;11.112;2023-11-19T06:22:25;27.93;;;14.20;;
6007;SDS011;3032;49.484;11.112;2023-11-19T06:24:50;16.63;;;10.80;;
6007;SDS011;3032;49.484;11.112;2023-11-19T06:27:16;23.57;;;12.33;;
6007;SDS011;3032;49.484;11.112;2023-11-19T06:29:41;16.33;;;10.60;;
6007;SDS011;3032;49.484;11.112;2023-11-19T06:32:07;17.93;;;10.73;;
6007;SDS011;3032;49.484;11.112;2023-11-19T06:34:33;16.37;;;10.40;;
6007;SDS011;3032;49.484;11.112;2023-11-19T06:36:59;14.20;;;9.98;;
6007;SDS011;3032;49.484;11.112;2023-11-19T06:39:24;20.13;;;11.90;;
6007;SDS011;3032;49.484;11.112;2023-11-19T06:41:50;14.83;;;10.07;;
6007;SDS011;3032;49.484;11.112;2023-11-19T06:44:16;30.90;;;13.75;;
6007;SDS011;3032;49.484;11.112;2023-11-19T06:46:42;15.80;;;9.27;;
6007;SDS011;3032;49.484;11.112;2023-11-19T06:49:08;42.97;;;16.27;;
6007;SDS011;3032;49.484;11.112;2023-11-19T06:51:34;14.40;;;9.17;;
6007;SDS011;3032;49.484;11.112;2023-11-19T06:53:59;18.33;;;10.87;;
6007;SDS011;3032;49.484;11.112;2023-11-19T06:56:25;15.00;;;10.13;;
6007;SDS011;3032;49.484;11.112;2023-11-19T06:58:51;32.53;;;14.23;;
6007;SDS011;3032;49.484;11.112;2023-11-19T07:01:18;27.73;;;13.68;;
6007;SDS011;3032;49.484;11.112;2023-11-19T07:03:44;19.17;;;10.53;;
6007;SDS011;3032;49.484;11.112;2023-11-19T07:06:11;21.60;;;10.75;;
6007;SDS011;3032;49.484;11.112;2023-11-19T07:08:38;18.58;;;11.10;;
6007;SDS011;3032;49.484;11.112;2023-11-19T07:11:04;18.60;;;10.52;;
6007;SDS011;3032;49.484;11.112;2023-11-19T07:13:29;15.30;;;9.37;;
6007;SDS011;3032;49.484;11.112;2023-11-19T07:15:58;29.20;;;13.37;;
6007;SDS011;3032;49.484;11.112;2023-11-19T07:18:23;21.85;;;10.85;;
6007;SDS011;3032;49.484;11.112;2023-11-19T07:20:50;22.92;;;11.65;;
6007;SDS011;3032;49.484;11.112;2023-11-19T07:23:16;18.97;;;10.53;;
6007;SDS011;3032;49.484;11.112;2023-11-19T07:25:42;28.03;;;13.67;;
6007;SDS011;3032;49.484;11.112;2023-11-19T07:28:09;13.63;;;9.60;;
6007;SDS011;3032;49.484;11.112;2023-11-19T07:30:35;29.90;;;12.70;;
6007;SDS011;3032;49.484;11.112;2023-11-19T07:33:01;22.87;;;11.70;;
6007;SDS011;3032;49.484;11.112;2023-11-19T07:35:28;29.95;;;13.80;;
6007;SDS011;3032;49.484;11.112;2023-11-19T07:37:55;43.00;;;16.00;;
6007;SDS011;3032;49.484;11.112;2023-11-19T07:40:22;15.82;;;9.98;;
6007;SDS011;3032;49.484;11.112;2023-11-19T07:42:48;14.40;;;9.63;;
6007;SDS011;3032;49.484;11.112;2023-11-19T07:45:14;40.20;;;15.63;;
6007;SDS011;3032;49.484;11.112;2023-11-19T07:47:39;29.57;;;13.33;;
6007;SDS011;3032;49.484;11.112;2023-11-19T07:50:05;11.03;;;8.77;;
6007;SDS011;3032;49.484;11.112;2023-11-19T07:52:31;12.57;;;8.25;;
6007;SDS011;3032;49.484;11.112;2023-11-19T07:54:56;24.70;;;12.07;;
6007;SDS011;3032;49.484;11.112;2023-11-19T07:57:22;20.80;;;11.57;;
6007;SDS011;3032;49.484;11.112;2023-11-19T07:59:49;13.80;;;9.90;;
6007;SDS011;3032;49.484;11.112;2023-11-19T08:02:14;14.83;;;10.53;;
6007;SDS011;3032;49.484;11.112;2023-11-19T08:04:40;12.83;;;8.80;;
6007;SDS011;3032;49.484;11.112;2023-11-19T08:07:09;11.55;;;8.27;;
6007;SDS011;3032;49.484;11.112;2023-11-19T08:09:36;12.85;;;8.25;;
6007;SDS011;3032;49.484;11.112;2023-11-19T08:12:02;24.02;;;11.00;;
6007;SDS011;3032;49.484;11.112;2023-11-19T08:14:28;21.92;;;12.30;;
6007;SDS011;3032;49.484;11.112;2023-11-19T08:16:54;10.10;;;7.50;;
6007;SDS011;3032;49.484;11.112;2023-11-19T08:19:19;18.10;;;10.00;;
6007;SDS011;3032;49.484;11.112;2023-11-19T08:21:45;24.53;;;11.80;;
6007;SDS011;3032;49.484;11.112;2023-11-19T08:24:11;8.53;;;5.77;;
6007;SDS011;3032;49.484;11.112;2023-11-19T08:26:36;10.93;;;6.33;;
6007;SDS011;3032;49.484;11.112;2023-11-19T08:29:02;6.90;;;6.00;;
6007;SDS011;3032;49.484;11.112;2023-11-19T08:31:28;25.58;;;11.65;;
6007;SDS011;3032;49.484;11.112;2023-11-19T08:33:53;17.83;;;9.37;;
6007;SDS011;3032;49.484;11.112;2023-11-19T08:36:19;8.50;;;5.87;;
6007;SDS011;3032;49.484;11.112;2023-11-19T08:38:45;7.32;;;6.50;;
6007;SDS011;3032;49.484;11.112;2023-11-19T08:41:11;5.07;;;4.57;;
6007;SDS011;3032;49.484;11.112;2023-11-19T08:43:36;3.57;;;2.50;;
6007;SDS011;3032;49.484;11.112;2023-11-19T08:46:03;4.32;;;3.95;;
6007;SDS011;3032;49.484;11.112;2023-11-19T08:48:29;7.32;;;6.53;;
6007;SDS011;3032;49.484;11.112;2023-11-19T08:50:54;12.50;;;10.00;;
6007;SDS011;3032;49.484;11.112;2023-11-19T08:53:20;6.30;;;5.00;;
6007;SDS011;3032;49.484;11.112;2023-11-19T08:55:46;4.17;;;3.73;;
6007;SDS011;3032;49.484;11.112;2023-11-19T08:58:11;2.90;;;2.70;;
6007;SDS011;3032;49.484;11.112;2023-11-19T09:00:37;3.63;;;3.33;;
6007;SDS011;3032;49.484;11.112;2023-11-19T09:03:02;2.40;;;2.30;;
6007;SDS011;3032;49.484;11.112;2023-11-19T09:05:28;2.50;;;2.30;;
6007;SDS011;3032;49.484;11.112;2023-11-19T09:07:54;2.27;;;2.07;;
6007;SDS011;3032;49.484;11.112;2023-11-19T09:10:19;1.80;;;1.70;;
6007;SDS011;3032;49.484;11.112;2023-11-19T09:12:45;5.00;;;2.30;;
6007;SDS011;3032;49.484;11.112;2023-11-19T09:15:10;1.80;;;1.70;;
6007;SDS011;3032;49.484;11.112;2023-11-19T09:17:36;1.50;;;1.30;;
6007;SDS011;3032;49.484;11.112;2023-11-19T09:20:01;2.47;;;1.83;;
6007;SDS011;3032;49.484;11.112;2023-11-19T09:22:27;7.20;;;4.93;;
6007;SDS011;3032;49.484;11.112;2023-11-19T09:24:53;1.40;;;1.40;;
6007;SDS011;3032;49.484;11.112;2023-11-19T09:27:19;1.37;;;1.27;;
6007;SDS011;3032;49.484;11.112;2023-11-19T09:29:45;7.82;;;1.85;;
6007;SDS011;3032;49.484;11.112;2023-11-19T09:32:12;1.40;;;1.30;;
6007;SDS011;3032;49.484;11.112;2023-11-19T09:34:37;2.00;;;1.80;;
6007;SDS011;3032;49.484;11.112;2023-11-19T09:37:03;1.53;;;1.43;;
6007;SDS011;3032;49.484;11.112;2023-11-19T09:39:29;3.60;;;1.37;;
6007;SDS011;3032;49.484;11.112;2023-11-19T09:41:54;2.30;;;1.93;;
6007;SDS011;3032;49.484;11.112;2023-11-19T09:44:20;1.07;;;1.07;;
6007;SDS011;3032;49.484;11.112;2023-11-19T09:46:46;1.40;;;1.30;;
6007;SDS011;3032;49.484;11.112;2023-11-19T09:49:13;1.33;;;1.08;;
6007;SDS011;3032;49.484;11.112;2023-11-19T09:51:42;1.10;;;1.00;;
6007;SDS011;3032;49.484;11.112;2023-11-19T09:54:08;2.30;;;1.00;;
6007;SDS011;3032;49.484;11.112;2023-11-19T09:56:34;1.90;;;1.30;;
6007;SDS011;3032;49.484;11.112;2023-11-19T09:59:02;1.45;;;1.27;;
6007;SDS011;3032;49.484;11.112;2023-11-19T10:01:28;1.70;;;1.30;;
6007;SDS011;3032;49.484;11.112;2023-11-19T10:03:55;1.38;;;1.27;;
6007;SDS011;3032;49.484;11.112;2023-11-19T10:06:20;1.40;;;1.30;;
6007;SDS011;3032;49.484;11.112;2023-11-19T10:08:47;4.45;;;1.60;;
6007;SDS011;3032;49.484;11.112;2023-11-19T10:11:12;2.30;;;1.50;;
6007;SDS011;3032;49.484;11.112;2023-11-19T10:13:38;1.83;;;1.17;;
6007;SDS011;3032;49.484;11.112;2023-11-19T10:16:08;1.30;;;1.20;;
6007;SDS011;3032;49.484;11.112;2023-11-19T10:18:36;2.45;;;1.90;;
6007;SDS011;3032;49.484;11.112;2023-11-19T10:21:03;1.95;;;1.10;;
6007;SDS011;3032;49.484;11.112;2023-11-19T10:26:33;1.85;;;1.30;;
6007;SDS011;3032;49.484;11.112;2023-11-19T10:29:01;2.00;;;1.50;;
6007;SDS011;3032;49.484;11.112;2023-11-19T10:31:27;3.30;;;1.37;;
6007;SDS011;3032;49.484;11.112;2023-11-19T10:33:52;2.50;;;1.57;;
6007;SDS011;3032;49.484;11.112;2023-11-19T10:36:18;1.80;;;1.00;;
6007;SDS011;3032;49.484;11.112;2023-11-19T10:38:54;1.63;;;1.53;;
6007;SDS011;3032;49.484;11.112;2023-11-19T10:41:30;2.47;;;1.50;;
6007;SDS011;3032;49.484;11.112;2023-11-19T10:43:57;2.55;;;1.88;;
6007;SDS011;3032;49.484;11.112;2023-11-19T10:46:23;1.92;;;1.67;;
6007;SDS011;3032;49.484;11.112;2023-11-19T10:49:02;2.03;;;1.70;;
6007;SDS011;3032;49.484;11.112;2023-11-19T10:51:27;2.23;;;1.90;;
6007;SDS011;3032;49.484;11.112;2023-11-19T10:53:54;1.88;;;1.70;;
6007;SDS011;3032;49.484;11.112;2023-11-19T10:56:26;1.60;;;1.50;;
6007;SDS011;3032;49.484;11.112;2023-11-19T10:58:55;1.08;;;1.00;;
6007;SDS011;3032;49.484;11.112;2023-11-19T11:01:24;1.33;;;1.33;;
6007;SDS011;3032;49.484;11.112;2023-11-19T11:03:59;3.03;;;1.30;;
6007;SDS011;3032;49.484;11.112;2023-11-19T11:06:26;1.90;;;1.80;;
6007;SDS011;3032;49.484;11.112;2023-11-19T11:08:52;1.10;;;1.10;;
6007;SDS011;3032;49.484;11.112;2023-11-19T11:11:20;1.98;;;1.48;;
6007;SDS011;3032;49.484;11.112;2023-11-19T11:13:46;1.83;;;1.67;;
6007;SDS011;3032;49.484;11.112;2023-11-19T11:16:14;2.35;;;2.15;;
6007;SDS011;3032;49.484;11.112;2023-11-19T11:18:43;2.75;;;2.55;;
6007;SDS011;3032;49.484;11.112;2023-11-19T11:21:14;3.15;;;1.80;;
6007;SDS011;3032;49.484;11.112;2023-11-19T11:28:56;2.20;;;1.50;;
6007;SDS011;3032;49.484;11.112;2023-11-19T11:33:59;2.72;;;1.27;;
6007;SDS011;3032;49.484;11.112;2023-11-19T11:36:28;1.30;;;1.23;;
6007;SDS011;3032;49.484;11.112;2023-11-19T11:38:56;1.90;;;1.63;;
6007;SDS011;3032;49.484;11.112;2023-11-19T11:41:25;4.47;;;1.77;;
6007;SDS011;3032;49.484;11.112;2023-11-19T11:43:51;2.60;;;1.50;;
6007;SDS011;3032;49.484;11.112;2023-11-19T11:49:00;1.88;;;1.70;;
6007;SDS011;3032;49.484;11.112;2023-11-19T11:54:08;1.52;;;1.42;;
6007;SDS011;3032;49.484;11.112;2023-11-19T11:56:36;1.80;;;1.20;;
6007;SDS011;3032;49.484;11.112;2023-11-19T11:59:03;3.15;;;1.60;;
6007;SDS011;3032;49.484;11.112;2023-11-19T12:01:32;1.77;;;1.65;;
6007;SDS011;3032;49.484;11.112;2023-11-19T12:03:58;3.53;;;1.27;;
6007;SDS011;3032;49.484;11.112;2023-11-19T12:06:23;4.30;;;1.57;;
6007;SDS011;3032;49.484;11.112;2023-11-19T12:08:49;3.77;;;1.60;;
6007;SDS011;3032;49.484;11.112;2023-11-19T12:11:15;4.10;;;2.20;;
6007;SDS011;3032;49.484;11.112;2023-11-19T12:13:52;3.65;;;1.70;;
6007;SDS011;3032;49.484;11.112;2023-11-19T12:16:23;4.47;;;1.40;;
6007;SDS011;3032;49.484;11.112;2023-11-19T12:18:49;1.40;;;1.30;;
6007;SDS011;3032;49.484;11.112;2023-11-19T12:21:28;2.00;;;1.90;;
6007;SDS011;3032;49.484;11.112;2023-11-19T12:23:58;1.42;;;1.33;;
6007;SDS011;3032;49.484;11.112;2023-11-19T12:26:35;3.85;;;1.63;;
6007;SDS011;3032;49.484;11.112;2023-11-19T12:29:03;2.80;;;1.85;;
6007;SDS011;3032;49.484;11.112;2023-11-19T12:31:29;1.55;;;1.50;;
6007;SDS011;3032;49.484;11.112;2023-11-19T12:33:55;3.03;;;1.83;;
6007;SDS011;3032;49.484;11.112;2023-11-19T12:36:21;6.20;;;1.70;;
6007;SDS011;3032;49.484;11.112;2023-11-19T12:38:46;3.33;;;1.83;;
6007;SDS011;3032;49.484;11.112;2023-11-19T12:41:12;6.07;;;2.17;;
6007;SDS011;3032;49.484;11.112;2023-11-19T12:43:41;2.13;;;1.83;;
6007;SDS011;3032;49.484;11.112;2023-11-19T12:46:20;5.43;;;2.20;;
6007;SDS011;3032;49.484;11.112;2023-11-19T12:48:47;4.78;;;2.40;;
6007;SDS011;3032;49.484;11.112;2023-11-19T12:51:16;4.50;;;3.35;;
6007;SDS011;3032;49.484;11.112;2023-11-19T12:53:51;2.72;;;1.67;;
6007;SDS011;3032;49.484;11.112;2023-11-19T12:56:22;5.10;;;2.80;;
6007;SDS011;3032;49.484;11.112;2023-11-19T12:58:48;5.30;;;2.90;;
6007;SDS011;3032;49.484;11.112;2023-11-19T13:01:15;3.75;;;2.10;;
6007;SDS011;3032;49.484;11.112;2023-11-19T13:03:45;2.03;;;1.83;;
6007;SDS011;3032;49.484;11.112;2023-11-19T13:06:14;8.93;;;5.15;;
6007;SDS011;3032;49.484;11.112;2023-11-19T13:08:45;7.28;;;4.95;;
6007;SDS011;3032;49.484;11.112;2023-11-19T13:11:13;7.43;;;2.42;;
6007;SDS011;3032;49.484;11.112;2023-11-19T13:13:58;2.47;;;1.97;;
6007;SDS011;3032;49.484;11.112;2023-11-19T13:16:25;4.43;;;1.50;;
6007;SDS011;3032;49.484;11.112;2023-11-19T13:18:52;1.50;;;1.40;;
6007;SDS011;3032;49.484;11.112;2023-11-19T13:21:17;8.53;;;3.90;;
6007;SDS011;3032;49.484;11.112;2023-11-19T13:23:43;2.00;;;1.63;;
6007;SDS011;3032;49.484;11.112;2023-11-19T13:26:09;1.80;;;1.40;;
6007;SDS011;3032;49.484;11.112;2023-11-19T13:28:36;3.83;;;2.20;;
6007;SDS011;3032;49.484;11.112;2023-11-19T13:31:02;1.80;;;1.50;;
6007;SDS011;3032;49.484;11.112;2023-11-19T13:33:28;2.37;;;1.30;;
6007;SDS011;3032;49.484;11.112;2023-11-19T13:35:54;1.67;;;1.25;;
6007;SDS011;3032;49.484;11.112;2023-11-19T13:38:20;4.03;;;2.00;;
6007;SDS011;3032;49.484;11.112;2023-11-19T13:40:46;3.13;;;2.00;;
6007;SDS011;3032;49.484;11.112;2023-11-19T13:43:11;3.73;;;2.60;;
6007;SDS011;3032;49.484;11.112;2023-11-19T13:45:37;3.20;;;2.40;;
6007;SDS011;3032;49.484;11.112;2023-11-19T13:48:02;1.30;;;1.20;;
6007;SDS011;3032;49.484;11.112;2023-11-19T13:50:28;2.70;;;1.50;;
6007;SDS011;3032;49.484;11.112;2023-11-19T13:52:54;2.40;;;1.57;;
6007;SDS011;3032;49.484;11.112;2023-11-19T13:55:20;1.33;;;1.23;;
6007;SDS011;3032;49.484;11.112;2023-11-19T13:57:47;1.10;;;1.10;;
6007;SDS011;3032;49.484;11.112;2023-11-19T14:00:13;2.83;;;1.48;;
6007;SDS011;3032;49.484;11.112;2023-11-19T14:02:44;1.40;;;1.27;;
6007;SDS011;3032;49.484;11.112;2023-11-19T14:05:14;2.42;;;1.50;;
6007;SDS011;3032;49.484;11.112;2023-11-19T14:07:42;2.15;;;1.08;;
6007;SDS011;3032;49.484;11.112;2023-11-19T14:10:09;1.77;;;1.25;;
6007;SDS011;3032;49.484;11.112;2023-11-19T14:12:36;5.15;;;1.50;;
6007;SDS011;3032;49.484;11.112;2023-11-19T14:15:05;1.27;;;1.17;;
6007;SDS011;3032;49.484;11.112;2023-11-19T14:17:32;1.33;;;1.20;;
6007;SDS011;3032;49.484;11.112;2023-11-19T14:19:59;2.45;;;1.25;;
6007;SDS011;3032;49.484;11.112;2023-11-19T14:22:25;1.83;;;1.00;;
6007;SDS011;3032;49.484;11.112;2023-11-19T14:24:50;2.50;;;1.47;;
6007;SDS011;3032;49.484;11.112;2023-11-19T14:27:16;1.93;;;1.50;;
6007;SDS011;3032;49.484;11.112;2023-11-19T14:29:42;1.73;;;1.50;;
6007;SDS011;3032;49.484;11.112;2023-11-19T14:32:12;4.70;;;3.00;;
6007;SDS011;3032;49.484;11.112;2023-11-19T14:34:38;2.97;;;2.77;;
6007;SDS011;3032;49.484;11.112;2023-11-19T14:37:03;3.27;;;1.97;;
6007;SDS011;3032;49.484;11.112;2023-11-19T14:39:29;3.03;;;2.73;;
6007;SDS011;3032;49.484;11.112;2023-11-19T14:41:57;5.80;;;2.08;;
6007;SDS011;3032;49.484;11.112;2023-11-19T14:44:26;7.28;;;2.00;;
6007;SDS011;3032;49.484;11.112;2023-11-19T14:46:52;4.05;;;2.30;;
6007;SDS011;3032;49.484;11.112;2023-11-19T14:49:17;5.40;;;2.83;;
6007;SDS011;3032;49.484;11.112;2023-11-19T14:51:43;4.00;;;1.50;;
6007;SDS011;3032;49.484;11.112;2023-11-19T14:54:08;7.63;;;4.00;;
6007;SDS011;3032;49.484;11.112;2023-11-19T14:56:34;12.27;;;5.87;;
6007;SDS011;3032;49.484;11.112;2023-11-19T14:58:59;6.10;;;3.07;;
6007;SDS011;3032;49.484;11.112;2023-11-19T15:01:25;3.20;;;2.90;;
6007;SDS011;3032;49.484;11.112;2023-11-19T15:03:52;3.00;;;1.98;;
6007;SDS011;3032;49.484;11.112;2023-11-19T15:06:17;8.87;;;2.63;;